createdAt,value
2018-10-09T00:00:26.267Z,56120.04
2018-10-09T00:02:55.360Z,56170.42
2018-10-09T00:05:24.478Z,56165.28
2018-10-09T00:07:53.621Z,56185.85
2018-10-09T00:10:23.056Z,56150.89
2018-10-09T00:12:52.158Z,56158.09
2018-10-09T00:15:21.321Z,56167.34
2018-10-09T00:17:50.393Z,56199.21
2018-10-09T00:20:25.163Z,56176.59
2018-10-09T00:22:58.261Z,56186.87
2018-10-09T00:25:27.421Z,56156.03
2018-10-09T00:27:56.850Z,56148.83
2018-10-09T00:30:26.674Z,56170.42
2018-10-09T00:32:55.961Z,56134.43
2018-10-09T00:35:25.048Z,56182.76
2018-10-09T00:37:54.121Z,56176.59
2018-10-09T00:40:23.222Z,56143.69
2018-10-09T00:42:52.302Z,56192.02
2018-10-09T00:45:21.437Z,56186.87
2018-10-09T00:47:50.560Z,56178.65
2018-10-09T00:50:19.661Z,56184.82
2018-10-09T00:52:48.750Z,56205.38
2018-10-09T00:55:17.842Z,56194.07
2018-10-09T00:57:46.973Z,56160.14
2018-10-09T01:00:16.030Z,56188.93
2018-10-09T01:02:45.146Z,56156.03
2018-10-09T01:05:14.230Z,56187.90
2018-10-09T01:07:43.312Z,56159.11
2018-10-09T01:10:12.423Z,56180.71
2018-10-09T01:12:41.542Z,56168.37
2018-10-09T01:15:10.627Z,56159.11
2018-10-09T01:17:39.789Z,56153.97
2018-10-09T01:20:08.902Z,56196.13
2018-10-09T01:22:37.974Z,56179.68
2018-10-09T01:25:07.061Z,56166.31
2018-10-09T01:27:36.189Z,56142.66
2018-10-09T01:30:05.314Z,56193.05
2018-10-09T01:32:34.439Z,56156.03
2018-10-09T01:35:03.556Z,56153.97
2018-10-09T01:37:32.662Z,56178.65
2018-10-09T01:40:01.729Z,56177.62
2018-10-09T01:42:30.796Z,56164.25
2018-10-09T01:44:59.880Z,56165.28
2018-10-09T01:47:29.064Z,56170.42
2018-10-09T01:49:58.161Z,56188.93
2018-10-09T01:52:27.227Z,56189.96
2018-10-09T01:54:56.305Z,56183.79
2018-10-09T01:57:25.388Z,56163.23
2018-10-09T01:59:54.472Z,56197.16
2018-10-09T02:02:23.629Z,56181.73
2018-10-09T02:04:52.749Z,56137.52
2018-10-09T02:07:21.889Z,56166.31
2018-10-09T02:09:50.971Z,56158.09
2018-10-09T02:12:20.076Z,56193.05
2018-10-09T02:14:49.178Z,56157.05
2018-10-09T02:17:18.308Z,56161.17
2018-10-09T02:19:47.401Z,56211.55
2018-10-09T02:22:16.492Z,56149.86
2018-10-09T02:24:45.597Z,56153.97
2018-10-09T02:27:14.690Z,56178.65
2018-10-09T02:29:43.789Z,56184.82
2018-10-09T02:32:12.922Z,56190.99
2018-10-09T02:34:41.992Z,56201.27
2018-10-09T02:37:11.138Z,56148.83
2018-10-09T02:39:40.250Z,56167.34
2018-10-09T02:42:09.342Z,56160.14
2018-10-09T02:44:38.441Z,56167.34
2018-10-09T02:47:07.913Z,56145.75
2018-10-09T02:49:37.057Z,56161.17
2018-10-09T02:52:07.358Z,56174.54
2018-10-09T02:54:36.448Z,56188.93
2018-10-09T02:57:05.626Z,56164.25
2018-10-09T02:59:34.784Z,56185.85
2018-10-09T03:02:03.868Z,56172.48
2018-10-09T03:04:33.043Z,56190.99
2018-10-09T03:07:02.160Z,56150.89
2018-10-09T03:09:31.254Z,56170.42
2018-10-09T03:12:00.333Z,56176.59
2018-10-09T03:14:29.427Z,56165.28
2018-10-09T03:16:58.513Z,56157.05
2018-10-09T03:19:27.609Z,56181.73
2018-10-09T03:21:56.736Z,56166.31
2018-10-09T03:24:25.848Z,56186.87
2018-10-09T03:26:54.977Z,56176.59
2018-10-09T03:29:24.089Z,56143.69
2018-10-09T03:31:53.197Z,56203.33
2018-10-09T03:34:22.280Z,56139.57
2018-10-09T03:36:51.349Z,56209.50
2018-10-09T03:39:20.404Z,56184.82
2018-10-09T03:41:49.530Z,56184.82
2018-10-09T03:44:18.620Z,56164.25
2018-10-09T03:46:47.718Z,56200.24
2018-10-09T03:49:16.837Z,56205.38
2018-10-09T03:51:46.176Z,56193.05
2018-10-09T03:54:15.346Z,56160.14
2018-10-09T03:56:44.400Z,56162.20
2018-10-09T03:59:13.565Z,56151.91
2018-10-09T04:01:42.736Z,56180.71
2018-10-09T04:04:11.830Z,56152.94
2018-10-09T04:06:40.928Z,56180.71
2018-10-09T04:09:12.675Z,56176.59
2018-10-09T04:11:41.901Z,56162.20
2018-10-09T04:14:10.990Z,56168.37
2018-10-09T04:16:40.106Z,56161.17
2018-10-09T04:19:09.617Z,56182.76
2018-10-09T04:21:38.742Z,56188.93
2018-10-09T04:24:07.889Z,56170.42
2018-10-09T04:26:36.989Z,56178.65
2018-10-09T04:29:06.076Z,56167.34
2018-10-09T04:31:35.159Z,56183.79
2018-10-09T04:34:04.280Z,56197.16
2018-10-09T04:36:33.349Z,56202.30
2018-10-09T04:39:02.451Z,56175.56
2018-10-09T04:41:33.541Z,56172.48
2018-10-09T04:44:02.876Z,56200.24
2018-10-09T04:46:32.043Z,56187.90
2018-10-09T04:49:01.167Z,56190.99
2018-10-09T04:51:30.314Z,56199.21
2018-10-09T04:53:59.533Z,56129.29
2018-10-09T04:56:28.667Z,56168.37
2018-10-09T04:58:57.802Z,56190.99
2018-10-09T05:01:26.930Z,56194.07
2018-10-09T05:03:56.140Z,56195.10
2018-10-09T05:06:25.229Z,56202.30
2018-10-09T05:08:54.359Z,56220.81
2018-10-09T05:11:23.459Z,56199.21
2018-10-09T05:13:52.630Z,56140.61
2018-10-09T05:16:21.735Z,56211.55
2018-10-09T05:18:50.866Z,56184.82
2018-10-09T05:21:20.027Z,56181.73
2018-10-09T05:23:49.182Z,56192.02
2018-10-09T05:26:18.327Z,56168.37
2018-10-09T05:28:47.457Z,56207.44
2018-10-09T05:31:16.601Z,56170.42
2018-10-09T05:33:45.702Z,56192.02
2018-10-09T05:36:15.095Z,56207.44
2018-10-09T05:38:44.628Z,56166.31
2018-10-09T05:41:13.761Z,56167.34
2018-10-09T05:43:42.886Z,56171.45
2018-10-09T05:46:11.984Z,56181.73
2018-10-09T05:48:41.186Z,56135.46
2018-10-09T05:51:10.318Z,56170.42
2018-10-09T05:53:39.451Z,56150.89
2018-10-09T05:56:08.725Z,56167.34
2018-10-09T05:58:37.872Z,56185.85
2018-10-09T06:01:07.628Z,56180.71
2018-10-09T06:03:36.735Z,56174.54
2018-10-09T06:06:05.934Z,56156.03
2018-10-09T06:08:35.536Z,56152.94
2018-10-09T06:11:04.774Z,56213.61
2018-10-09T06:13:34.031Z,56180.71
2018-10-09T06:16:03.161Z,56164.25
2018-10-09T06:18:32.316Z,56165.28
2018-10-09T06:21:01.484Z,56185.85
2018-10-09T06:23:30.629Z,56133.41
2018-10-09T06:25:59.796Z,56174.54
2018-10-09T06:28:29.007Z,56164.25
2018-10-09T06:30:58.087Z,56186.87
2018-10-09T06:33:27.173Z,56179.68
2018-10-09T06:35:56.506Z,56174.54
2018-10-09T06:38:25.593Z,56161.17
2018-10-09T06:40:54.712Z,56180.71
2018-10-09T06:43:23.811Z,56166.31
2018-10-09T06:45:52.931Z,56134.43
2018-10-09T06:48:22.029Z,56188.93
2018-10-09T06:50:51.147Z,56150.89
2018-10-09T06:53:20.259Z,56153.97
2018-10-09T06:55:49.289Z,56139.57
2018-10-09T06:58:18.422Z,56180.71
2018-10-09T07:00:47.558Z,56160.14
2018-10-09T07:03:16.775Z,56144.71
2018-10-09T07:05:45.853Z,56171.45
2018-10-09T07:08:14.957Z,56145.75
2018-10-09T07:10:44.054Z,56143.69
2018-10-09T07:13:13.282Z,56126.21
2018-10-09T07:15:42.372Z,56141.63
2018-10-09T07:18:11.470Z,56104.62
2018-10-09T07:20:40.590Z,56159.11
2018-10-09T07:23:09.690Z,56151.91
2018-10-09T07:25:38.795Z,56102.56
2018-10-09T07:28:07.951Z,56132.38
2018-10-09T07:30:37.048Z,56133.41
2018-10-09T07:33:06.245Z,56133.41
2018-10-09T07:35:35.368Z,56141.63
2018-10-09T07:38:04.461Z,56107.70
2018-10-09T07:40:33.562Z,56116.95
2018-10-09T07:43:02.661Z,56142.66
2018-10-09T07:45:31.783Z,56112.84
2018-10-09T07:48:00.862Z,56121.07
2018-10-09T07:50:29.990Z,56104.62
2018-10-09T07:52:59.188Z,56139.57
2018-10-09T07:55:28.228Z,56097.42
2018-10-09T07:57:57.351Z,56108.73
2018-10-09T08:00:26.442Z,56104.62
2018-10-09T08:02:55.543Z,56127.23
2018-10-09T08:05:24.669Z,56137.52
2018-10-09T08:07:53.823Z,56084.05
2018-10-09T08:10:23.008Z,56090.22
2018-10-09T08:12:52.117Z,56120.04
2018-10-09T08:15:21.211Z,56090.22
2018-10-09T08:17:50.321Z,56088.16
2018-10-09T08:20:19.407Z,56073.77
2018-10-09T08:22:48.541Z,56102.56
2018-10-09T08:25:17.674Z,56079.94
2018-10-09T08:27:46.798Z,56060.40
2018-10-09T08:30:15.919Z,56090.22
2018-10-09T08:32:45.035Z,56053.20
2018-10-09T08:35:14.137Z,56073.77
2018-10-09T08:37:43.284Z,56104.62
2018-10-09T08:40:12.494Z,56065.54
2018-10-09T08:42:41.525Z,56083.02
2018-10-09T08:45:17.191Z,56082.00
2018-10-09T08:47:46.298Z,56084.05
2018-10-09T08:50:15.449Z,56046.00
2018-10-09T08:52:44.540Z,56057.32
2018-10-09T08:55:13.673Z,56088.16
2018-10-09T08:57:42.820Z,56079.94
2018-10-09T09:00:11.940Z,56079.94
2018-10-09T09:02:41.055Z,56026.47
2018-10-09T09:05:10.226Z,56067.60
2018-10-09T09:07:39.638Z,56061.43
2018-10-09T09:10:08.833Z,56015.16
2018-10-09T09:12:37.954Z,55926.73
2018-10-09T09:15:07.446Z,55917.48
2018-10-09T09:17:36.555Z,55908.23
2018-10-09T09:20:05.699Z,55898.97
2018-10-09T09:22:34.862Z,55908.23
2018-10-09T09:25:03.927Z,55887.66
2018-10-09T09:27:33.126Z,55889.72
2018-10-09T09:30:02.096Z,55882.52
2018-10-09T09:32:31.199Z,55984.31
2018-10-09T09:35:00.318Z,56012.07
2018-10-09T09:37:29.411Z,56018.24
2018-10-09T09:39:58.497Z,55993.57
2018-10-09T09:42:27.596Z,55982.25
2018-10-09T09:44:56.696Z,55957.58
2018-10-09T09:47:25.762Z,55939.07
2018-10-09T09:49:54.908Z,55966.83
2018-10-09T09:52:23.985Z,56013.10
2018-10-09T09:54:53.105Z,55973.00
2018-10-09T09:57:22.254Z,55995.62
2018-10-09T09:59:51.699Z,55960.66
2018-10-09T10:02:20.808Z,55969.92
2018-10-09T10:04:49.912Z,55940.10
2018-10-09T10:07:19.007Z,55948.32
2018-10-09T10:09:48.141Z,55958.61
2018-10-09T10:12:17.262Z,55983.28
2018-10-09T10:14:46.377Z,55960.66
2018-10-09T10:17:15.498Z,55964.78
2018-10-09T10:19:44.657Z,55958.61
2018-10-09T10:22:13.768Z,55977.11
2018-10-09T10:24:42.879Z,56018.24
2018-10-09T10:27:11.995Z,55994.59
2018-10-09T10:29:41.104Z,55970.95
2018-10-09T10:32:10.246Z,56020.30
2018-10-09T10:34:39.477Z,56016.19
2018-10-09T10:37:08.734Z,56028.52
2018-10-09T10:39:37.881Z,56052.18
2018-10-09T10:42:07.064Z,56038.81
2018-10-09T10:44:36.173Z,56041.89
2018-10-09T10:47:05.297Z,56044.98
2018-10-09T10:49:34.466Z,56055.26
2018-10-09T10:52:03.570Z,56070.68
2018-10-09T10:54:32.736Z,56053.20
2018-10-09T10:57:01.831Z,56035.72
2018-10-09T10:59:31.024Z,56065.54
2018-10-09T11:02:00.127Z,56063.48
2018-10-09T11:04:29.240Z,56070.68
2018-10-09T11:06:58.361Z,56064.51
2018-10-09T11:09:27.485Z,56080.96
2018-10-09T11:11:56.574Z,56044.98
2018-10-09T11:14:25.690Z,56027.50
2018-10-09T11:16:54.816Z,56056.29
2018-10-09T11:19:23.990Z,56062.46
2018-10-09T11:21:53.088Z,56075.82
2018-10-09T11:24:22.244Z,56029.55
2018-10-09T11:26:51.367Z,56044.98
2018-10-09T11:29:20.517Z,56059.37
2018-10-09T11:31:49.666Z,56071.71
2018-10-09T11:34:18.741Z,56049.09
2018-10-09T11:36:47.887Z,56020.30
2018-10-09T11:39:17.078Z,56042.92
2018-10-09T11:41:46.208Z,55998.71
2018-10-09T11:44:15.366Z,56049.09
2018-10-09T11:46:44.518Z,56055.26
2018-10-09T11:49:13.599Z,56052.18
2018-10-09T11:51:42.687Z,56052.18
2018-10-09T11:54:11.761Z,56051.14
2018-10-09T11:56:40.924Z,56058.34
2018-10-09T11:59:10.135Z,56032.64
2018-10-09T12:01:39.198Z,56047.03
2018-10-09T12:04:08.479Z,56056.29
2018-10-09T12:06:37.593Z,56030.58
2018-10-09T12:09:10.509Z,56053.20
2018-10-09T12:11:40.204Z,56048.06
2018-10-09T12:14:09.473Z,56032.64
2018-10-09T12:16:38.604Z,56047.03
2018-10-09T12:19:07.701Z,56049.09
2018-10-09T12:21:37.250Z,56042.92
2018-10-09T12:24:06.362Z,56032.64
2018-10-09T12:26:35.469Z,55997.68
2018-10-09T12:29:04.644Z,56038.81
2018-10-09T12:31:33.726Z,56033.67
2018-10-09T12:34:02.833Z,56035.72
2018-10-09T12:36:31.983Z,56042.92
2018-10-09T12:39:01.048Z,56053.20
2018-10-09T12:41:30.187Z,56037.78
2018-10-09T12:43:59.406Z,56057.32
2018-10-09T12:46:28.379Z,56054.23
2018-10-09T12:48:57.509Z,56029.55
2018-10-09T12:51:26.630Z,56029.55
2018-10-09T12:53:55.821Z,56053.20
2018-10-09T12:56:24.938Z,56047.03
2018-10-09T12:58:54.147Z,56063.48
2018-10-09T13:01:23.268Z,56055.26
2018-10-09T13:03:52.410Z,56065.54
2018-10-09T13:06:21.560Z,56053.20
2018-10-09T13:08:50.681Z,56070.68
2018-10-09T13:11:19.808Z,56039.84
2018-10-09T13:13:48.969Z,56036.75
2018-10-09T13:16:18.229Z,55992.54
2018-10-09T13:18:47.342Z,56030.58
2018-10-09T13:21:16.688Z,56033.67
2018-10-09T13:23:45.675Z,56022.36
2018-10-09T13:26:14.812Z,56020.30
2018-10-09T13:28:43.914Z,56023.38
2018-10-09T13:31:13.067Z,56026.47
2018-10-09T13:33:42.198Z,56015.16
2018-10-09T13:36:11.340Z,56016.19
2018-10-09T13:38:40.474Z,56025.44
2018-10-09T13:41:09.623Z,56001.79
2018-10-09T13:43:38.689Z,55981.23
2018-10-09T13:46:08.818Z,56017.21
2018-10-09T13:48:37.942Z,56006.93
2018-10-09T13:51:07.364Z,56011.05
2018-10-09T13:53:36.719Z,56022.36
2018-10-09T13:56:05.886Z,56014.13
2018-10-09T13:58:35.001Z,56001.79
2018-10-09T14:01:04.133Z,56002.82
2018-10-09T14:03:33.240Z,55990.48
2018-10-09T14:06:02.364Z,55987.40
2018-10-09T14:08:31.441Z,56020.30
2018-10-09T14:11:00.566Z,56036.75
2018-10-09T14:13:29.674Z,56011.05
2018-10-09T14:15:58.794Z,56024.41
2018-10-09T14:18:27.905Z,56018.24
2018-10-09T14:20:57.072Z,56031.61
2018-10-09T14:23:26.290Z,56039.84
2018-10-09T14:25:55.434Z,56041.89
2018-10-09T14:28:25.440Z,56065.54
2018-10-09T14:30:54.557Z,56020.30
2018-10-09T14:33:23.707Z,56044.98
2018-10-09T14:35:52.805Z,56053.20
2018-10-09T14:38:21.887Z,56037.78
2018-10-09T14:40:51.028Z,56046.00
2018-10-09T14:43:20.164Z,56052.18
2018-10-09T14:45:49.277Z,56043.95
2018-10-09T14:48:18.385Z,56047.03
2018-10-09T14:50:47.476Z,56078.91
2018-10-09T14:53:16.607Z,56079.94
2018-10-09T14:55:45.705Z,56061.43
2018-10-09T14:58:14.805Z,56044.98
2018-10-09T15:00:43.962Z,56044.98
2018-10-09T15:03:13.117Z,56059.37
2018-10-09T15:05:42.204Z,56062.46
2018-10-09T15:08:11.357Z,56070.68
2018-10-09T15:10:40.454Z,56080.96
2018-10-09T15:13:09.611Z,56073.77
2018-10-09T15:15:38.723Z,56043.95
2018-10-09T15:18:07.895Z,56050.12
2018-10-09T15:20:37.061Z,56059.37
2018-10-09T15:23:06.303Z,56055.26
2018-10-09T15:25:35.447Z,56059.37
2018-10-09T15:28:04.579Z,56083.02
2018-10-09T15:30:33.688Z,56065.54
2018-10-09T15:33:02.859Z,56092.28
2018-10-09T15:35:32.139Z,56079.94
2018-10-09T15:38:01.168Z,56098.45
2018-10-09T15:40:30.275Z,56089.19
2018-10-09T15:42:59.370Z,56060.40
2018-10-09T15:45:28.496Z,56107.70
2018-10-09T15:47:57.621Z,56084.05
2018-10-09T15:50:26.785Z,56080.96
2018-10-09T15:52:55.901Z,56086.11
2018-10-09T15:55:25.236Z,56103.59
2018-10-09T15:57:54.359Z,56071.71
2018-10-09T16:00:23.515Z,56090.22
2018-10-09T16:02:52.682Z,56105.64
2018-10-09T16:05:21.793Z,56069.65
2018-10-09T16:07:50.905Z,56097.42
2018-10-09T16:10:20.053Z,56125.18
2018-10-09T16:12:49.213Z,56067.60
2018-10-09T16:15:18.353Z,56108.73
2018-10-09T16:17:47.514Z,56089.19
2018-10-09T16:20:16.620Z,56068.62
2018-10-09T16:22:45.748Z,56100.50
2018-10-09T16:25:14.876Z,56122.09
2018-10-09T16:27:44.014Z,56089.19
2018-10-09T16:30:13.201Z,56110.79
2018-10-09T16:32:42.435Z,56105.64
2018-10-09T16:35:11.462Z,56117.98
2018-10-09T16:37:40.592Z,56086.11
2018-10-09T16:40:09.797Z,56121.07
2018-10-09T16:42:38.964Z,56117.98
2018-10-09T16:45:08.116Z,56134.43
2018-10-09T16:47:37.199Z,56097.42
2018-10-09T16:50:06.357Z,56108.73
2018-10-09T16:52:35.508Z,56127.23
2018-10-09T16:55:04.865Z,56121.07
2018-10-09T16:57:33.995Z,56137.52
2018-10-09T17:00:03.141Z,56119.01
2018-10-09T17:02:32.252Z,56131.35
2018-10-09T17:05:01.433Z,56131.35
2018-10-09T17:07:30.552Z,56132.38
2018-10-09T17:09:59.649Z,56166.31
2018-10-09T17:12:28.869Z,56124.15
2018-10-09T17:14:59.002Z,56135.46
2018-10-09T17:17:28.366Z,56133.41
2018-10-09T17:19:57.620Z,56137.52
2018-10-09T17:22:26.984Z,56162.20
2018-10-09T17:24:56.107Z,56126.21
2018-10-09T17:27:25.259Z,56124.15
2018-10-09T17:29:54.371Z,56137.52
2018-10-09T17:32:23.568Z,56120.04
2018-10-09T17:34:52.641Z,56166.31
2018-10-09T17:37:21.805Z,56142.66
2018-10-09T17:39:50.930Z,56157.05
2018-10-09T17:42:20.083Z,56169.39
2018-10-09T17:44:49.241Z,56109.76
2018-10-09T17:47:18.474Z,56162.20
2018-10-09T17:49:47.528Z,56137.52
2018-10-09T17:52:16.629Z,56133.41
2018-10-09T17:54:45.737Z,56144.71
2018-10-09T17:57:14.880Z,56100.50
2018-10-09T17:59:44.046Z,56142.66
2018-10-09T18:02:13.154Z,56143.69
2018-10-09T18:04:42.321Z,56160.14
2018-10-09T18:07:11.456Z,56145.75
2018-10-09T18:09:40.615Z,56188.93
2018-10-09T18:12:09.714Z,56130.32
2018-10-09T18:14:38.919Z,56120.04
2018-10-09T18:17:08.074Z,56153.97
2018-10-09T18:19:37.250Z,56162.20
2018-10-09T18:22:06.398Z,56142.66
2018-10-09T18:24:35.548Z,56167.34
2018-10-09T18:27:04.694Z,56147.80
2018-10-09T18:29:33.837Z,56168.37
2018-10-09T18:32:02.954Z,56146.77
2018-10-09T18:34:32.108Z,56131.35
2018-10-09T18:37:01.247Z,56159.11
2018-10-09T18:39:30.384Z,56139.57
2018-10-09T18:41:59.567Z,56132.38
2018-10-09T18:44:28.631Z,56147.80
2018-10-09T18:46:57.818Z,56162.20
2018-10-09T18:49:26.936Z,56149.86
2018-10-09T18:51:56.076Z,56155.00
2018-10-09T18:54:25.183Z,56131.35
2018-10-09T18:56:54.292Z,56145.75
2018-10-09T18:59:23.425Z,56135.46
2018-10-09T19:01:52.529Z,56150.89
2018-10-09T19:04:21.655Z,56134.43
2018-10-09T19:06:50.783Z,56156.03
2018-10-09T19:09:19.956Z,56151.91
2018-10-09T19:11:49.078Z,56166.31
2018-10-09T19:14:18.243Z,56170.42
2018-10-09T19:16:47.311Z,56139.57
2018-10-09T19:19:16.389Z,56157.05
2018-10-09T19:21:45.536Z,56145.75
2018-10-09T19:24:14.642Z,56186.87
2018-10-09T19:26:43.774Z,56147.80
2018-10-09T19:29:12.898Z,56168.37
2018-10-09T19:31:42.017Z,56170.42
2018-10-09T19:34:11.164Z,56170.42
2018-10-09T19:36:40.253Z,56147.80
2018-10-09T19:39:11.246Z,56112.84
2018-10-09T19:41:40.330Z,56170.42
2018-10-09T19:44:09.474Z,56156.03
2018-10-09T19:46:39.369Z,56163.23
2018-10-09T19:49:08.483Z,56170.42
2018-10-09T19:51:37.702Z,56145.75
2018-10-09T19:54:06.848Z,56172.48
2018-10-09T19:56:35.966Z,56151.91
2018-10-09T19:59:05.124Z,56149.86
2018-10-09T20:01:34.278Z,56197.16
2018-10-09T20:04:03.427Z,56164.25
2018-10-09T20:06:32.877Z,56186.87
2018-10-09T20:09:02.008Z,56141.63
2018-10-09T20:11:31.189Z,56188.93
2018-10-09T20:14:00.265Z,56156.03
2018-10-09T20:16:30.859Z,56166.31
2018-10-09T20:18:59.937Z,56165.28
2018-10-09T20:21:29.009Z,56192.02
2018-10-09T20:23:58.142Z,56149.86
2018-10-09T20:26:27.255Z,56177.62
2018-10-09T20:28:56.391Z,56187.90
2018-10-09T20:31:25.490Z,56156.03
2018-10-09T20:33:54.606Z,56143.69
2018-10-09T20:36:23.691Z,56138.55
2018-10-09T20:38:52.830Z,56136.49
2018-10-09T20:41:22.275Z,56173.51
2018-10-09T20:43:51.622Z,56145.75
2018-10-09T20:46:20.716Z,56184.82
2018-10-09T20:48:49.829Z,56155.00
2018-10-09T20:51:18.903Z,56172.48
2018-10-09T20:53:48.035Z,56128.27
2018-10-09T20:56:17.182Z,56146.77
2018-10-09T20:58:46.342Z,56178.65
2018-10-09T21:01:15.434Z,56141.63
2018-10-09T21:03:44.542Z,56143.69
2018-10-09T21:06:13.780Z,56176.59
2018-10-09T21:08:43.090Z,56165.28
2018-10-09T21:11:12.231Z,56157.05
2018-10-09T21:13:41.358Z,56137.52
2018-10-09T21:16:10.746Z,56158.09
2018-10-09T21:18:39.825Z,56146.77
2018-10-09T21:21:08.920Z,56145.75
2018-10-09T21:23:38.006Z,56171.45
2018-10-09T21:26:07.072Z,56184.82
2018-10-09T21:28:36.194Z,56196.13
2018-10-09T21:31:05.304Z,56175.56
2018-10-09T21:33:34.462Z,56176.59
2018-10-09T21:36:03.572Z,56166.31
2018-10-09T21:38:32.691Z,56180.71
2018-10-09T21:41:01.819Z,56140.61
2018-10-09T21:43:30.938Z,56170.42
2018-10-09T21:46:00.006Z,56160.14
2018-10-09T21:48:29.107Z,56156.03
2018-10-09T21:50:58.217Z,56180.71
2018-10-09T21:53:27.277Z,56148.83
2018-10-09T21:55:56.380Z,56215.67
2018-10-09T21:58:25.545Z,56143.69
2018-10-09T22:00:59.909Z,56126.21
2018-10-09T22:03:29.011Z,56161.17
2018-10-09T22:05:58.104Z,56199.21
2018-10-09T22:08:27.842Z,56193.05
2018-10-09T22:10:56.942Z,56140.61
2018-10-09T22:13:26.037Z,56174.54
2018-10-09T22:15:55.129Z,56152.94
2018-10-09T22:18:24.268Z,56166.31
2018-10-09T22:20:53.403Z,56167.34
2018-10-09T22:23:22.488Z,56190.99
2018-10-09T22:25:51.610Z,56195.10
2018-10-09T22:28:20.790Z,56177.62
2018-10-09T22:30:49.887Z,56201.27
2018-10-09T22:33:19.402Z,56180.71
2018-10-09T22:35:48.484Z,56197.16
2018-10-09T22:38:17.604Z,56186.87
2018-10-09T22:40:46.730Z,56159.11
2018-10-09T22:43:15.881Z,56185.85
2018-10-09T22:48:22.038Z,56181.73
2018-10-09T22:50:51.107Z,56174.54
2018-10-09T22:53:20.197Z,56163.23
2018-10-09T22:55:49.320Z,56202.30
2018-10-09T22:58:18.452Z,56164.25
2018-10-09T23:00:47.559Z,56167.34
2018-10-09T23:03:16.668Z,56188.93
2018-10-09T23:05:45.788Z,56147.80
2018-10-09T23:08:14.871Z,56200.24
2018-10-09T23:10:43.989Z,56184.82
2018-10-09T23:13:13.118Z,56189.96
2018-10-09T23:15:42.269Z,56173.51
2018-10-09T23:18:11.323Z,56207.44
2018-10-09T23:20:40.479Z,56193.05
2018-10-09T23:23:09.586Z,56210.52
2018-10-09T23:25:38.733Z,56219.78
2018-10-09T23:28:07.809Z,56173.51
2018-10-09T23:30:37.056Z,56192.02
2018-10-09T23:33:06.146Z,56189.96
2018-10-09T23:35:35.268Z,56216.70
2018-10-09T23:38:04.358Z,56190.99
2018-10-09T23:40:33.430Z,56178.65
2018-10-09T23:43:02.635Z,56204.36
2018-10-09T23:45:31.725Z,56204.36
2018-10-09T23:48:02.768Z,56176.59
2018-10-09T23:50:31.865Z,56180.71
2018-10-09T23:53:00.986Z,56194.07
2018-10-09T23:55:30.103Z,56208.47
2018-10-09T23:57:59.265Z,56187.90
